createdAt,value
2017-01-25T00:00:16.443Z,0
2017-01-25T00:01:16.429Z,0
2017-01-25T00:03:16.853Z,0
2017-01-25T00:04:31.396Z,0
2017-01-25T00:05:16.513Z,0
2017-01-25T00:06:16.508Z,0
2017-01-25T00:07:16.521Z,0
2017-01-25T00:08:16.538Z,0
2017-01-25T00:09:16.549Z,0
2017-01-25T00:10:31.485Z,0
2017-01-25T00:12:16.598Z,0
2017-01-25T00:13:16.614Z,0
2017-01-25T00:14:46.468Z,0
2017-01-25T00:15:16.642Z,0
2017-01-25T00:16:16.660Z,0
2017-01-25T00:17:16.677Z,0
2017-01-25T00:18:16.688Z,0
2017-01-25T00:19:16.707Z,0
2017-01-25T00:20:31.640Z,0
2017-01-25T00:21:31.652Z,0
2017-01-25T00:22:16.749Z,0
2017-01-25T00:23:16.776Z,0
2017-01-25T00:24:16.785Z,0
2017-01-25T00:25:16.798Z,0
2017-01-25T00:26:16.814Z,0
2017-01-25T00:27:16.829Z,0
2017-01-25T00:28:16.844Z,0
2017-01-25T00:29:16.861Z,0
2017-01-25T00:30:16.885Z,0
2017-01-25T00:31:16.890Z,0
2017-01-25T00:32:16.906Z,0
2017-01-25T00:33:16.957Z,0
2017-01-25T00:34:16.937Z,0
2017-01-25T00:35:16.948Z,0
2017-01-25T00:36:31.884Z,0
2017-01-25T00:37:16.986Z,0
2017-01-25T00:38:16.994Z,0
2017-01-25T00:39:17.011Z,0
2017-01-25T00:40:17.026Z,0
2017-01-25T00:41:31.960Z,0
2017-01-25T00:42:31.977Z,0
2017-01-25T00:43:17.073Z,0
2017-01-25T00:44:17.089Z,0
2017-01-25T00:45:17.104Z,0
2017-01-25T00:46:32.040Z,0
2017-01-25T00:47:17.133Z,0
2017-01-25T00:48:17.149Z,0
2017-01-25T00:49:17.166Z,0
2017-01-25T00:50:17.183Z,0
2017-01-25T00:51:17.193Z,0
2017-01-25T00:52:17.213Z,0
2017-01-25T00:53:17.224Z,0
2017-01-25T00:54:17.243Z,0
2017-01-25T00:55:17.256Z,0
2017-01-25T00:56:32.192Z,0
2017-01-25T00:57:47.123Z,0
2017-01-25T00:58:17.308Z,0
2017-01-25T00:59:17.317Z,0
2017-01-25T01:00:17.343Z,0
2017-01-25T01:01:17.387Z,0
2017-01-25T01:02:32.281Z,0
2017-01-25T01:03:17.380Z,0
2017-01-25T01:04:17.398Z,0
2017-01-25T01:05:17.408Z,0
2017-01-25T01:06:32.344Z,0
2017-01-25T01:07:17.438Z,0
2017-01-25T01:08:17.463Z,0
2017-01-25T01:09:32.416Z,0
2017-01-25T01:10:17.487Z,0
2017-01-25T01:11:17.499Z,0
2017-01-25T01:12:17.520Z,0
2017-01-25T01:13:17.535Z,0
2017-01-25T01:14:17.546Z,0
2017-01-25T01:15:17.564Z,0
2017-01-25T01:17:17.589Z,0
2017-01-25T01:18:32.528Z,0
2017-01-25T01:19:17.624Z,0
2017-01-25T01:20:17.640Z,0
2017-01-25T01:21:17.655Z,0
2017-01-25T01:22:17.668Z,0
2017-01-25T01:23:17.685Z,0
2017-01-25T01:24:17.695Z,0
2017-01-25T01:25:17.713Z,0
2017-01-25T01:26:17.728Z,0
2017-01-25T01:27:17.746Z,0
2017-01-25T01:28:17.769Z,0
2017-01-25T01:29:33.089Z,0
2017-01-25T01:30:17.790Z,0
2017-01-25T01:31:17.804Z,0
2017-01-25T01:32:17.818Z,0
2017-01-25T01:33:17.835Z,0
2017-01-25T01:34:32.767Z,0
2017-01-25T01:35:17.871Z,0
2017-01-25T01:37:17.904Z,0
2017-01-25T01:38:17.912Z,0
2017-01-25T01:39:17.929Z,0
2017-01-25T01:40:17.966Z,0
2017-01-25T01:41:17.960Z,0
2017-01-25T01:42:17.975Z,0
2017-01-25T01:43:32.924Z,0
2017-01-25T01:44:18.001Z,0
2017-01-25T01:45:18.030Z,0
2017-01-25T01:46:18.233Z,0
2017-01-25T01:48:18.064Z,0
2017-01-25T01:49:32.997Z,0
2017-01-25T01:50:18.105Z,0
2017-01-25T01:51:18.494Z,0
2017-01-25T01:52:18.127Z,0
2017-01-25T01:53:18.139Z,0
2017-01-25T01:54:33.076Z,0
2017-01-25T01:55:18.171Z,0
2017-01-25T01:56:18.181Z,0
2017-01-25T01:57:33.122Z,0
2017-01-25T01:58:18.231Z,0
2017-01-25T01:59:18.268Z,0
2017-01-25T02:00:33.162Z,0
2017-01-25T02:01:33.176Z,0
2017-01-25T02:02:33.193Z,0
2017-01-25T02:03:18.317Z,0
2017-01-25T02:04:18.307Z,0
2017-01-25T02:05:18.322Z,0
2017-01-25T02:07:18.355Z,0
2017-01-25T02:08:18.368Z,0
2017-01-25T02:09:18.380Z,0
2017-01-25T02:10:18.397Z,0
2017-01-25T02:11:33.330Z,0
2017-01-25T02:12:18.427Z,0
2017-01-25T02:13:18.441Z,0
2017-01-25T02:14:18.484Z,0
2017-01-25T02:15:18.469Z,0
2017-01-25T02:16:33.405Z,0
2017-01-25T02:17:18.500Z,0
2017-01-25T02:18:18.525Z,0
2017-01-25T02:19:33.449Z,0
2017-01-25T02:20:18.545Z,0
2017-01-25T02:21:33.486Z,0
2017-01-25T02:22:18.576Z,0
2017-01-25T02:23:18.795Z,0
2017-01-25T02:24:18.607Z,0
2017-01-25T02:25:18.624Z,0
2017-01-25T02:26:18.641Z,0
2017-01-25T02:27:18.657Z,0
2017-01-25T02:28:33.586Z,0
2017-01-25T02:29:18.684Z,0
2017-01-25T02:30:18.704Z,0
2017-01-25T02:31:18.718Z,0
2017-01-25T02:32:18.738Z,0
2017-01-25T02:33:18.748Z,0
2017-01-25T02:34:18.765Z,0
2017-01-25T02:35:33.717Z,0
2017-01-25T02:36:18.790Z,0
2017-01-25T02:37:33.725Z,0
2017-01-25T02:38:18.974Z,0
2017-01-25T02:40:18.848Z,0
2017-01-25T02:41:18.866Z,0
2017-01-25T02:42:18.879Z,0
2017-01-25T02:43:18.919Z,0
2017-01-25T02:44:33.830Z,0
2017-01-25T02:45:18.927Z,0
2017-01-25T02:46:18.942Z,0
2017-01-25T02:47:48.793Z,0
2017-01-25T02:48:33.890Z,0
2017-01-25T02:49:18.995Z,0
2017-01-25T02:50:33.920Z,0
2017-01-25T02:51:19.019Z,0
2017-01-25T02:52:19.036Z,0
2017-01-25T02:53:33.974Z,0
2017-01-25T02:54:19.086Z,0
2017-01-25T02:55:19.080Z,0
2017-01-25T02:56:19.097Z,0
2017-01-25T02:57:19.115Z,0
2017-01-25T02:58:19.126Z,0
2017-01-25T03:00:19.166Z,0
2017-01-25T03:01:34.189Z,0
2017-01-25T03:02:19.186Z,0
2017-01-25T03:03:19.202Z,0
2017-01-25T03:04:34.143Z,0
2017-01-25T03:05:19.232Z,0
2017-01-25T03:06:19.252Z,0
2017-01-25T03:07:19.266Z,0
2017-01-25T03:08:19.284Z,0
2017-01-25T03:09:34.211Z,0
2017-01-25T03:10:19.310Z,0
2017-01-25T03:11:19.325Z,0
2017-01-25T03:12:19.340Z,0
2017-01-25T03:13:19.355Z,0
2017-01-25T03:14:19.369Z,0
2017-01-25T03:15:19.389Z,0
2017-01-25T03:16:19.407Z,0
2017-01-25T03:17:19.418Z,0
2017-01-25T03:18:19.434Z,0
2017-01-25T03:19:34.361Z,0
2017-01-25T03:20:19.460Z,0
2017-01-25T03:21:34.401Z,0
2017-01-25T03:23:19.509Z,0
2017-01-25T03:24:34.442Z,0
2017-01-25T03:26:19.587Z,0
2017-01-25T03:27:19.570Z,0
2017-01-25T03:28:19.583Z,0
2017-01-25T03:29:34.521Z,0
2017-01-25T03:30:19.619Z,0
2017-01-25T03:31:34.551Z,0
2017-01-25T03:32:19.652Z,0
2017-01-25T03:33:34.582Z,0
2017-01-25T03:34:19.677Z,0
2017-01-25T03:35:19.692Z,0
2017-01-25T03:36:19.710Z,0
2017-01-25T03:37:19.724Z,0
2017-01-25T03:38:19.745Z,0
2017-01-25T03:39:19.763Z,0
2017-01-25T03:40:19.773Z,0
2017-01-25T03:41:19.784Z,0
2017-01-25T03:42:19.832Z,0
2017-01-25T03:43:19.816Z,0
2017-01-25T03:44:19.832Z,0
2017-01-25T03:45:19.867Z,0
2017-01-25T03:46:19.865Z,0
2017-01-25T03:47:19.881Z,0
2017-01-25T03:48:19.897Z,0
2017-01-25T03:49:19.935Z,0
2017-01-25T03:50:34.841Z,0
2017-01-25T03:51:19.964Z,0
2017-01-25T03:52:34.876Z,0
2017-01-25T03:53:34.888Z,0
2017-01-25T03:54:19.988Z,0
2017-01-25T03:56:34.937Z,0
2017-01-25T03:58:20.051Z,0
2017-01-25T03:59:20.062Z,0
2017-01-25T04:01:20.093Z,0
2017-01-25T04:02:35.029Z,0
2017-01-25T04:03:20.129Z,0
2017-01-25T04:04:35.061Z,0
2017-01-25T04:05:20.154Z,0
2017-01-25T04:06:35.116Z,0
2017-01-25T04:07:20.190Z,0
2017-01-25T04:10:35.149Z,0
2017-01-25T04:11:20.263Z,0
2017-01-25T04:12:35.181Z,0
2017-01-25T04:13:20.282Z,0
2017-01-25T04:14:20.299Z,0
2017-01-25T04:15:20.311Z,0
2017-01-25T04:16:20.327Z,0
2017-01-25T04:17:20.343Z,0
2017-01-25T04:18:20.356Z,0
2017-01-25T04:19:20.367Z,0
2017-01-25T04:20:20.390Z,0
2017-01-25T04:22:20.420Z,0
2017-01-25T04:23:20.440Z,0
2017-01-25T04:25:35.379Z,0
2017-01-25T04:26:35.393Z,0
2017-01-25T04:27:20.491Z,0
2017-01-25T04:28:35.429Z,0
2017-01-25T04:30:20.540Z,0
2017-01-25T04:31:20.559Z,0
2017-01-25T04:32:20.574Z,0
2017-01-25T04:34:20.609Z,0
2017-01-25T04:35:20.613Z,0
2017-01-25T04:36:35.547Z,0
2017-01-25T04:37:20.669Z,0
2017-01-25T04:38:20.656Z,0
2017-01-25T04:39:20.673Z,0
2017-01-25T04:40:35.607Z,0
2017-01-25T04:42:20.719Z,0
2017-01-25T04:43:35.652Z,0
2017-01-25T04:44:35.676Z,0
2017-01-25T04:45:20.864Z,0
2017-01-25T04:46:20.782Z,0
2017-01-25T04:47:20.794Z,0
2017-01-25T04:48:20.812Z,0
2017-01-25T04:49:20.828Z,0
2017-01-25T04:50:20.840Z,0
2017-01-25T04:51:20.859Z,0
2017-01-25T04:52:20.873Z,0
2017-01-25T04:53:35.808Z,0
2017-01-25T04:54:20.925Z,0
2017-01-25T04:55:20.917Z,0
2017-01-25T04:56:35.848Z,0
2017-01-25T04:57:35.865Z,0
2017-01-25T04:58:35.880Z,0
2017-01-25T04:59:35.896Z,0
2017-01-25T05:00:20.995Z,0
2017-01-25T05:01:21.013Z,0
2017-01-25T05:02:21.032Z,0
2017-01-25T05:04:21.054Z,0
2017-01-25T05:05:21.073Z,0
2017-01-25T05:06:21.087Z,0
2017-01-25T05:07:21.109Z,0
2017-01-25T05:08:21.114Z,0
2017-01-25T05:09:21.135Z,0
2017-01-25T05:10:36.064Z,0
2017-01-25T05:11:21.186Z,0
2017-01-25T05:12:36.094Z,0
2017-01-25T05:13:21.196Z,0
2017-01-25T05:14:21.209Z,0
2017-01-25T05:16:21.258Z,0
2017-01-25T05:17:21.254Z,0
2017-01-25T05:18:21.270Z,0
2017-01-25T05:19:36.205Z,0
2017-01-25T05:20:21.304Z,0
2017-01-25T05:21:21.320Z,0
2017-01-25T05:22:21.330Z,0
2017-01-25T05:23:36.270Z,0
2017-01-25T05:24:21.364Z,0
2017-01-25T05:25:21.379Z,0
2017-01-25T05:26:36.309Z,0
2017-01-25T05:27:21.432Z,0
2017-01-25T05:28:21.423Z,0
2017-01-25T05:30:21.453Z,0
2017-01-25T05:31:36.389Z,0
2017-01-25T05:32:21.488Z,0
2017-01-25T05:33:21.498Z,0
2017-01-25T05:34:21.512Z,0
2017-01-25T05:35:21.528Z,0
2017-01-25T05:36:21.547Z,0
2017-01-25T05:37:21.560Z,0
2017-01-25T05:38:21.574Z,0
2017-01-25T05:39:36.512Z,0
2017-01-25T05:40:36.526Z,0
2017-01-25T05:41:36.541Z,0
2017-01-25T05:43:21.654Z,0
2017-01-25T05:44:21.675Z,0
2017-01-25T05:45:21.682Z,0
2017-01-25T05:46:21.702Z,0
2017-01-25T05:47:36.629Z,0
2017-01-25T05:48:21.734Z,0
2017-01-25T05:49:36.686Z,0
2017-01-25T05:50:21.759Z,0
2017-01-25T05:51:21.772Z,0
2017-01-25T05:53:36.722Z,0
2017-01-25T05:54:21.874Z,0
2017-01-25T05:55:21.836Z,0
2017-01-25T05:56:21.852Z,0
2017-01-25T05:57:21.868Z,0
2017-01-25T05:58:21.892Z,0
2017-01-25T05:59:21.900Z,0
2017-01-25T06:00:21.915Z,0
2017-01-25T06:01:21.928Z,0
2017-01-25T06:02:21.941Z,0
2017-01-25T06:03:36.874Z,0
2017-01-25T06:04:21.975Z,0
2017-01-25T06:05:21.989Z,0
2017-01-25T06:07:22.018Z,0
2017-01-25T06:08:22.041Z,0
2017-01-25T06:09:22.048Z,0
2017-01-25T06:10:22.064Z,0
2017-01-25T06:11:36.999Z,0
2017-01-25T06:12:22.094Z,0
2017-01-25T06:14:22.123Z,0
2017-01-25T06:16:22.157Z,0
2017-01-25T06:17:22.173Z,0
2017-01-25T06:19:52.041Z,0
2017-01-25T06:20:22.225Z,0
2017-01-25T06:21:22.240Z,0
2017-01-25T06:23:22.266Z,0
2017-01-25T06:24:22.283Z,0
2017-01-25T06:25:22.295Z,0
2017-01-25T06:26:22.312Z,0
2017-01-25T06:27:22.325Z,0
2017-01-25T06:28:22.340Z,0
2017-01-25T06:29:22.742Z,0
2017-01-25T06:30:22.367Z,0
2017-01-25T06:31:37.302Z,0
2017-01-25T06:32:22.404Z,0
2017-01-25T06:33:22.417Z,0
2017-01-25T06:34:37.348Z,0
2017-01-25T06:35:22.447Z,0
2017-01-25T06:36:22.463Z,0
2017-01-25T06:37:22.479Z,0
2017-01-25T06:38:22.491Z,0
2017-01-25T06:39:22.510Z,0
2017-01-25T06:40:22.528Z,0
2017-01-25T06:41:22.540Z,0
2017-01-25T06:42:22.554Z,0
2017-01-25T06:43:22.566Z,0
2017-01-25T06:44:22.585Z,0
2017-01-25T06:45:22.600Z,0
2017-01-25T06:46:37.532Z,0
2017-01-25T06:47:37.548Z,0
2017-01-25T06:48:22.645Z,0
2017-01-25T06:49:22.663Z,0
2017-01-25T06:50:22.677Z,0
2017-01-25T06:51:22.698Z,0
2017-01-25T06:52:22.705Z,0
2017-01-25T06:53:22.723Z,0
2017-01-25T06:54:22.746Z,0
2017-01-25T06:55:22.768Z,0
2017-01-25T06:56:37.690Z,0
2017-01-25T06:57:22.784Z,0
2017-01-25T06:58:22.796Z,0
2017-01-25T06:59:37.731Z,0
2017-01-25T07:00:37.748Z,0
2017-01-25T07:01:37.763Z,0
2017-01-25T07:03:22.874Z,0
2017-01-25T07:04:22.891Z,0
2017-01-25T07:06:37.835Z,0
2017-01-25T07:08:22.946Z,0
2017-01-25T07:09:22.965Z,0
2017-01-25T07:10:22.978Z,0
2017-01-25T07:11:22.996Z,0
2017-01-25T07:12:23.008Z,0
2017-01-25T07:13:23.033Z,0
2017-01-25T07:14:23.037Z,0
2017-01-25T07:15:23.053Z,0
2017-01-25T07:16:23.068Z,0
2017-01-25T07:17:38.005Z,0
2017-01-25T07:18:38.017Z,5
2017-01-25T07:20:23.131Z,5
2017-01-25T07:21:23.143Z,5
2017-01-25T07:22:38.080Z,5
2017-01-25T07:23:38.115Z,5
2017-01-25T07:24:23.193Z,5
2017-01-25T07:25:23.211Z,5
2017-01-25T07:26:23.222Z,5
2017-01-25T07:27:23.235Z,5
2017-01-25T07:28:23.256Z,5
2017-01-25T07:29:23.270Z,5
2017-01-25T07:30:23.281Z,5
2017-01-25T07:31:23.297Z,5
2017-01-25T07:32:38.232Z,5
2017-01-25T07:34:38.262Z,5
2017-01-25T07:35:23.355Z,5
2017-01-25T07:36:23.374Z,5
2017-01-25T07:37:23.388Z,5
2017-01-25T07:39:23.428Z,5
2017-01-25T07:40:23.440Z,5
2017-01-25T07:41:23.450Z,5
2017-01-25T07:42:23.463Z,5
2017-01-25T07:43:23.486Z,5
2017-01-25T07:44:23.492Z,5
2017-01-25T07:45:38.429Z,5
2017-01-25T07:46:23.523Z,5
2017-01-25T07:47:23.539Z,5
2017-01-25T07:48:38.475Z,5
2017-01-25T07:49:23.565Z,5
2017-01-25T07:50:23.585Z,5
2017-01-25T07:52:23.617Z,5
2017-01-25T07:54:38.568Z,5
2017-01-25T07:56:23.682Z,5
2017-01-25T07:57:23.692Z,5
2017-01-25T07:58:23.708Z,10
2017-01-25T07:59:23.721Z,10
2017-01-25T08:00:23.739Z,10
2017-01-25T08:01:23.751Z,10
2017-01-25T08:02:23.768Z,10
2017-01-25T08:03:23.782Z,10
2017-01-25T08:04:23.798Z,10
2017-01-25T08:05:23.816Z,10
2017-01-25T08:06:23.827Z,10
2017-01-25T08:07:38.761Z,10
2017-01-25T08:08:23.860Z,10
2017-01-25T08:09:38.799Z,10
2017-01-25T08:10:23.890Z,10
2017-01-25T08:11:23.903Z,10
2017-01-25T08:13:23.936Z,15
2017-01-25T08:14:23.951Z,15
2017-01-25T08:15:23.965Z,15
2017-01-25T08:16:24.464Z,15
2017-01-25T08:17:38.914Z,15
2017-01-25T08:18:24.010Z,15
2017-01-25T08:19:24.024Z,15
2017-01-25T08:20:38.962Z,15
2017-01-25T08:21:24.059Z,15
2017-01-25T08:22:24.094Z,15
2017-01-25T08:25:24.120Z,15
2017-01-25T08:26:24.133Z,15
2017-01-25T08:27:24.149Z,15
2017-01-25T08:28:24.164Z,15
2017-01-25T08:29:24.177Z,15
2017-01-25T08:30:24.194Z,15
2017-01-25T08:31:24.206Z,15
2017-01-25T08:32:24.224Z,15
2017-01-25T08:33:24.243Z,15
2017-01-25T08:34:24.256Z,15
2017-01-25T08:35:24.271Z,15
2017-01-25T08:36:39.203Z,15
2017-01-25T08:37:39.217Z,15
2017-01-25T08:38:24.318Z,15
2017-01-25T08:39:24.331Z,15
2017-01-25T08:40:24.345Z,20
2017-01-25T08:41:39.280Z,20
2017-01-25T08:42:24.377Z,15
2017-01-25T08:44:39.366Z,20
2017-01-25T08:45:24.422Z,20
2017-01-25T08:46:24.445Z,20
2017-01-25T08:47:24.487Z,20
2017-01-25T08:48:39.386Z,20
2017-01-25T08:49:24.484Z,20
2017-01-25T08:50:24.501Z,20
2017-01-25T08:51:24.512Z,20
2017-01-25T08:52:39.448Z,20
2017-01-25T08:53:24.545Z,20
2017-01-25T08:54:24.562Z,20
2017-01-25T08:55:39.492Z,20
2017-01-25T08:57:39.526Z,20
2017-01-25T08:58:24.626Z,20
2017-01-25T08:59:25.039Z,20
2017-01-25T09:00:24.658Z,20
2017-01-25T09:01:24.678Z,20
2017-01-25T09:02:24.705Z,20
2017-01-25T09:03:39.616Z,20
2017-01-25T09:04:40.020Z,20
2017-01-25T09:05:24.727Z,20
2017-01-25T09:06:24.742Z,20
2017-01-25T09:07:24.766Z,20
2017-01-25T09:08:24.774Z,20
2017-01-25T09:10:39.726Z,20
2017-01-25T09:11:24.822Z,25
2017-01-25T09:12:24.834Z,25
2017-01-25T09:13:39.775Z,25
2017-01-25T09:14:24.864Z,25
2017-01-25T09:15:24.882Z,25
2017-01-25T09:17:39.843Z,25
2017-01-25T09:18:24.931Z,25
2017-01-25T09:19:39.864Z,25
2017-01-25T09:20:39.879Z,20
2017-01-25T09:21:24.976Z,25
2017-01-25T09:22:24.991Z,25
2017-01-25T09:23:25.012Z,25
2017-01-25T09:24:39.947Z,25
2017-01-25T09:26:39.987Z,25
2017-01-25T09:28:25.085Z,25
2017-01-25T09:29:40.018Z,25
2017-01-25T09:30:25.115Z,25
2017-01-25T09:31:40.437Z,25
2017-01-25T09:32:25.150Z,25
2017-01-25T09:33:25.163Z,25
2017-01-25T09:34:25.176Z,30
2017-01-25T09:35:25.193Z,30
2017-01-25T09:36:25.211Z,30
2017-01-25T09:37:25.226Z,30
2017-01-25T09:38:25.241Z,30
2017-01-25T09:39:40.178Z,30
2017-01-25T09:40:25.276Z,30
2017-01-25T09:41:25.290Z,30
2017-01-25T09:43:25.329Z,30
2017-01-25T09:44:40.257Z,30
2017-01-25T09:45:25.350Z,30
2017-01-25T09:47:25.382Z,30
2017-01-25T09:49:40.334Z,30
2017-01-25T09:50:25.434Z,30
2017-01-25T09:51:40.365Z,30
2017-01-25T09:52:40.385Z,30
2017-01-25T09:53:25.480Z,30
2017-01-25T09:54:40.413Z,30
2017-01-25T09:55:55.396Z,30
2017-01-25T09:56:25.534Z,30
2017-01-25T09:58:25.779Z,30
2017-01-25T09:59:25.572Z,30
2017-01-25T10:00:25.586Z,30
2017-01-25T10:01:25.605Z,30
2017-01-25T10:03:25.636Z,30
2017-01-25T10:04:25.653Z,35
2017-01-25T10:05:25.666Z,35
2017-01-25T10:06:25.686Z,35
2017-01-25T10:07:25.700Z,35
2017-01-25T10:08:25.714Z,35
2017-01-25T10:09:40.650Z,30
2017-01-25T10:10:25.743Z,30
2017-01-25T10:11:40.683Z,35
2017-01-25T10:12:40.694Z,35
2017-01-25T10:13:25.794Z,35
2017-01-25T10:14:25.808Z,35
2017-01-25T10:15:25.825Z,40
2017-01-25T10:16:40.757Z,40
2017-01-25T10:17:25.859Z,40
2017-01-25T10:19:25.907Z,40
2017-01-25T10:20:25.905Z,40
2017-01-25T10:21:25.920Z,40
2017-01-25T10:22:25.934Z,40
2017-01-25T10:23:25.945Z,40
2017-01-25T10:24:25.969Z,40
2017-01-25T10:25:40.902Z,40
2017-01-25T10:26:25.994Z,40
2017-01-25T10:27:40.931Z,40
2017-01-25T10:28:40.946Z,40
2017-01-25T10:29:26.044Z,40
2017-01-25T10:30:26.059Z,40
2017-01-25T10:31:26.074Z,40
2017-01-25T10:32:41.010Z,40
2017-01-25T10:33:26.109Z,40
2017-01-25T10:34:26.123Z,40
2017-01-25T10:35:26.139Z,40
2017-01-25T10:36:26.183Z,40
2017-01-25T10:37:26.177Z,40
2017-01-25T10:38:26.184Z,40
2017-01-25T10:39:26.202Z,40
2017-01-25T10:40:26.218Z,40
2017-01-25T10:41:26.231Z,40
2017-01-25T10:42:41.551Z,40
2017-01-25T10:43:26.265Z,40
2017-01-25T10:44:26.281Z,45
2017-01-25T10:45:41.217Z,45
2017-01-25T10:46:26.314Z,40
2017-01-25T10:47:26.326Z,45
2017-01-25T10:49:41.283Z,40
2017-01-25T10:50:26.377Z,40
2017-01-25T10:51:26.390Z,40
2017-01-25T10:52:26.402Z,40
2017-01-25T10:53:26.420Z,40
2017-01-25T10:54:26.442Z,45
2017-01-25T10:55:26.454Z,45
2017-01-25T10:56:26.467Z,50
2017-01-25T10:57:26.482Z,50
2017-01-25T10:58:26.503Z,50
2017-01-25T10:59:41.434Z,50
2017-01-25T11:00:41.449Z,50
2017-01-25T11:01:26.546Z,45
2017-01-25T11:04:41.565Z,45
2017-01-25T11:05:26.640Z,45
2017-01-25T11:06:26.928Z,45
2017-01-25T11:07:26.641Z,45
2017-01-25T11:08:26.660Z,50
2017-01-25T11:09:41.600Z,50
2017-01-25T11:10:26.736Z,45
2017-01-25T11:11:41.624Z,45
2017-01-25T11:12:26.724Z,45
2017-01-25T11:13:56.575Z,45
2017-01-25T11:14:26.767Z,45
2017-01-25T11:16:41.738Z,45
2017-01-25T11:18:26.823Z,45
2017-01-25T11:19:41.752Z,45
2017-01-25T11:20:26.860Z,45
2017-01-25T11:21:26.870Z,45
2017-01-25T11:22:26.888Z,45
2017-01-25T11:23:26.904Z,50
2017-01-25T11:24:26.915Z,50
2017-01-25T11:25:26.937Z,50
2017-01-25T11:26:26.955Z,50
2017-01-25T11:27:26.964Z,50
2017-01-25T11:28:26.979Z,50
2017-01-25T11:29:26.999Z,50
2017-01-25T11:30:27.013Z,50
2017-01-25T11:31:41.947Z,50
2017-01-25T11:32:27.051Z,50
2017-01-25T11:35:27.098Z,50
2017-01-25T11:36:27.128Z,50
2017-01-25T11:37:27.127Z,50
2017-01-25T11:38:27.533Z,50
2017-01-25T11:39:27.158Z,50
2017-01-25T11:40:27.178Z,50
2017-01-25T11:41:27.191Z,50
2017-01-25T11:42:27.204Z,50
2017-01-25T11:43:27.227Z,50
2017-01-25T11:44:27.235Z,50
2017-01-25T11:45:42.174Z,50
2017-01-25T11:46:27.270Z,50
2017-01-25T11:47:42.204Z,50
2017-01-25T11:48:27.303Z,45
2017-01-25T11:49:42.252Z,45
2017-01-25T11:50:27.338Z,45
2017-01-25T11:51:42.268Z,45
2017-01-25T11:52:27.370Z,45
2017-01-25T11:53:27.385Z,45
2017-01-25T11:54:27.403Z,45
2017-01-25T11:55:42.335Z,45
2017-01-25T11:56:27.824Z,40
2017-01-25T11:57:27.445Z,40
2017-01-25T11:58:27.464Z,40
2017-01-25T11:59:27.480Z,45
2017-01-25T12:00:27.501Z,45
2017-01-25T12:01:27.513Z,45
2017-01-25T12:02:27.530Z,40
2017-01-25T12:03:27.544Z,40
2017-01-25T12:04:27.560Z,45
2017-01-25T12:06:27.594Z,45
2017-01-25T12:07:42.530Z,40
2017-01-25T12:08:27.621Z,40
2017-01-25T12:10:27.656Z,40
2017-01-25T12:11:42.599Z,40
2017-01-25T12:12:27.693Z,40
2017-01-25T12:13:27.723Z,35
2017-01-25T12:14:27.729Z,35
2017-01-25T12:15:27.741Z,40
2017-01-25T12:16:27.753Z,40
2017-01-25T12:17:42.690Z,40
2017-01-25T12:19:42.720Z,40
2017-01-25T12:20:27.818Z,40
2017-01-25T12:21:27.833Z,40
2017-01-25T12:22:27.849Z,40
2017-01-25T12:23:42.784Z,40
2017-01-25T12:24:27.882Z,40
2017-01-25T12:26:27.914Z,40
2017-01-25T12:27:27.932Z,40
2017-01-25T12:28:27.944Z,40
2017-01-25T12:29:27.965Z,40
2017-01-25T12:30:42.895Z,35
2017-01-25T12:31:27.994Z,40
2017-01-25T12:32:28.010Z,40
2017-01-25T12:33:28.036Z,40
2017-01-25T12:34:28.049Z,40
2017-01-25T12:35:28.057Z,40
2017-01-25T12:36:28.075Z,40
2017-01-25T12:37:28.095Z,35
2017-01-25T12:38:28.107Z,35
2017-01-25T12:39:43.041Z,35
2017-01-25T12:40:28.141Z,35
2017-01-25T12:41:28.159Z,35
2017-01-25T12:42:28.173Z,35
2017-01-25T12:43:28.187Z,35
2017-01-25T12:44:28.595Z,35
2017-01-25T12:45:28.219Z,35
2017-01-25T12:46:28.236Z,40
2017-01-25T12:47:43.170Z,40
2017-01-25T12:48:28.275Z,40
2017-01-25T12:49:28.282Z,40
2017-01-25T12:51:43.234Z,40
2017-01-25T12:53:28.349Z,35
2017-01-25T12:54:43.284Z,35
2017-01-25T12:55:28.382Z,35
2017-01-25T12:56:28.398Z,35
2017-01-25T12:57:28.412Z,35
2017-01-25T12:58:43.384Z,35
2017-01-25T12:59:28.443Z,35
2017-01-25T13:00:28.470Z,35
2017-01-25T13:01:28.482Z,35
2017-01-25T13:02:28.495Z,30
2017-01-25T13:03:28.508Z,30
2017-01-25T13:04:28.524Z,30
2017-01-25T13:05:43.461Z,30
2017-01-25T13:06:28.560Z,30
2017-01-25T13:07:43.790Z,30
2017-01-25T13:08:28.590Z,30
2017-01-25T13:09:28.607Z,30
2017-01-25T13:10:28.624Z,30
2017-01-25T13:11:28.646Z,30
2017-01-25T13:12:28.654Z,30
2017-01-25T13:13:28.671Z,25
2017-01-25T13:14:28.690Z,25
2017-01-25T13:15:28.705Z,25
2017-01-25T13:16:28.727Z,25
2017-01-25T13:17:28.738Z,30
2017-01-25T13:18:28.778Z,30
2017-01-25T13:19:28.767Z,30
2017-01-25T13:21:43.720Z,30
2017-01-25T13:22:28.814Z,30
2017-01-25T13:23:28.835Z,30
2017-01-25T13:24:28.854Z,30
2017-01-25T13:25:43.781Z,30
2017-01-25T13:26:43.799Z,35
2017-01-25T13:27:28.906Z,35
2017-01-25T13:28:28.916Z,35
2017-01-25T13:29:43.850Z,35
2017-01-25T13:30:28.949Z,35
2017-01-25T13:31:28.964Z,35
2017-01-25T13:32:28.980Z,35
2017-01-25T13:33:28.993Z,35
2017-01-25T13:34:43.929Z,35
2017-01-25T13:35:43.948Z,35
2017-01-25T13:36:29.043Z,35
2017-01-25T13:37:29.062Z,35
2017-01-25T13:38:29.075Z,30
2017-01-25T13:39:29.096Z,30
2017-01-25T13:40:29.107Z,30
2017-01-25T13:42:44.059Z,30
2017-01-25T13:43:29.158Z,30
2017-01-25T13:44:29.172Z,30
2017-01-25T13:45:29.189Z,30
2017-01-25T13:46:29.208Z,30
2017-01-25T13:47:29.227Z,30
2017-01-25T13:48:29.237Z,35
2017-01-25T13:49:44.170Z,35
2017-01-25T13:50:29.269Z,35
2017-01-25T13:51:29.338Z,30
2017-01-25T13:52:44.230Z,30
2017-01-25T13:53:59.155Z,30
2017-01-25T13:55:29.359Z,30
2017-01-25T13:56:29.377Z,25
2017-01-25T13:57:29.384Z,25
2017-01-25T13:58:44.318Z,30
2017-01-25T13:59:29.422Z,25
2017-01-25T14:00:29.434Z,25
2017-01-25T14:01:29.455Z,25
2017-01-25T14:02:29.465Z,25
2017-01-25T14:03:29.486Z,25
2017-01-25T14:04:44.416Z,25
2017-01-25T14:06:29.530Z,25
2017-01-25T14:07:44.467Z,25
2017-01-25T14:08:29.564Z,25
2017-01-25T14:09:29.591Z,25
2017-01-25T14:10:29.598Z,25
2017-01-25T14:11:29.615Z,20
2017-01-25T14:12:29.630Z,20
2017-01-25T14:13:29.647Z,20
2017-01-25T14:14:44.576Z,20
2017-01-25T14:15:29.674Z,20
2017-01-25T14:16:29.701Z,20
2017-01-25T14:17:29.711Z,20
2017-01-25T14:19:29.738Z,20
2017-01-25T14:20:29.767Z,20
2017-01-25T14:21:29.813Z,20
2017-01-25T14:22:44.707Z,20
2017-01-25T14:23:29.831Z,20
2017-01-25T14:24:29.822Z,20
2017-01-25T14:26:29.852Z,20
2017-01-25T14:27:29.873Z,20
2017-01-25T14:28:30.275Z,20
2017-01-25T14:29:44.828Z,20
2017-01-25T14:30:44.843Z,15
2017-01-25T14:31:29.938Z,15
2017-01-25T14:32:29.952Z,15
2017-01-25T14:33:44.889Z,15
2017-01-25T14:34:29.987Z,15
2017-01-25T14:35:30.000Z,15
2017-01-25T14:36:44.933Z,15
2017-01-25T14:37:30.033Z,15
2017-01-25T14:38:30.047Z,15
2017-01-25T14:39:30.063Z,15
2017-01-25T14:40:44.998Z,15
2017-01-25T14:41:30.097Z,15
2017-01-25T14:43:30.144Z,15
2017-01-25T14:44:30.143Z,10
2017-01-25T14:45:30.158Z,10
2017-01-25T14:46:30.182Z,10
2017-01-25T14:48:30.212Z,10
2017-01-25T14:49:30.228Z,10
2017-01-25T14:50:30.295Z,10
2017-01-25T14:51:30.255Z,10
2017-01-25T14:52:45.189Z,10
2017-01-25T14:53:30.305Z,10
2017-01-25T14:54:30.308Z,10
2017-01-25T14:55:45.249Z,10
2017-01-25T14:56:45.254Z,10
2017-01-25T14:57:45.269Z,10
2017-01-25T14:58:30.368Z,10
2017-01-25T14:59:30.382Z,10
2017-01-25T15:00:30.398Z,10
2017-01-25T15:01:45.335Z,10
2017-01-25T15:02:30.430Z,10
2017-01-25T15:03:30.448Z,10
2017-01-25T15:04:45.384Z,5
2017-01-25T15:05:30.478Z,5
2017-01-25T15:06:30.494Z,5
2017-01-25T15:07:30.511Z,5
2017-01-25T15:08:45.443Z,5
2017-01-25T15:09:30.544Z,5
2017-01-25T15:10:45.527Z,5
2017-01-25T15:11:30.572Z,5
2017-01-25T15:12:30.593Z,5
2017-01-25T15:13:30.617Z,5
2017-01-25T15:14:30.647Z,5
2017-01-25T15:16:30.664Z,5
2017-01-25T15:17:45.588Z,5
2017-01-25T15:18:30.684Z,0
2017-01-25T15:21:30.729Z,0
2017-01-25T15:22:30.750Z,0
2017-01-25T15:23:30.765Z,0
2017-01-25T15:24:45.696Z,0
2017-01-25T15:25:30.796Z,0
2017-01-25T15:26:30.811Z,0
2017-01-25T15:27:45.746Z,0
2017-01-25T15:28:30.841Z,0
2017-01-25T15:29:31.250Z,0
2017-01-25T15:30:30.873Z,0
2017-01-25T15:31:31.280Z,0
2017-01-25T15:32:45.831Z,0
2017-01-25T15:33:45.842Z,0
2017-01-25T15:34:30.940Z,0
2017-01-25T15:35:30.954Z,0
2017-01-25T15:36:30.973Z,0
2017-01-25T15:37:30.986Z,0
2017-01-25T15:38:31.007Z,0
2017-01-25T15:39:31.020Z,0
2017-01-25T15:40:45.950Z,0
2017-01-25T15:41:31.051Z,0
2017-01-25T15:42:31.550Z,0
2017-01-25T15:43:31.081Z,0
2017-01-25T15:44:31.099Z,0
2017-01-25T15:45:31.120Z,0
2017-01-25T15:46:31.151Z,0
2017-01-25T15:48:31.158Z,0
2017-01-25T15:49:46.093Z,0
2017-01-25T15:50:31.198Z,0
2017-01-25T15:51:46.130Z,0